Time;durP1;ratioP1;P1;durP2;ratioP2;P2;SDS_P1;SDS_P2;PMS_P1;PMS_P2;Temp;Humidity;BMP_temperature;BMP_pressure;BME280_temperature;BME280_humidity;BME280_pressure;Samples;Min_cycle;Max_cycle;Signal;HPM_P1;HPM_P2
2023/06/15 00:01:55;;;;;;;0.88;0.80;;;;;;;13.57;78.02;99559.84;5037719;28;20045;-62
2023/06/15 00:04:24;;;;;;;1.52;1.20;;;;;;;13.55;78.23;99564.16;5037093;28;20053;-61
2023/06/15 00:06:53;;;;;;;0.87;0.87;;;;;;;13.54;77.91;99557.31;5037390;28;20124;-61
2023/06/15 00:09:22;;;;;;;0.87;0.87;;;;;;;13.52;78.22;99548.81;5036937;28;20079;-62
2023/06/15 00:11:51;;;;;;;1.05;0.95;;;;;;;13.64;77.85;99553.75;5037228;28;20403;-62
2023/06/15 00:14:20;;;;;;;0.50;0.50;;;;;;;13.72;77.71;99546.81;5036995;28;20049;-62
2023/06/15 00:16:52;;;;;;;6.60;2.78;;;;;;;13.73;77.30;99548.47;5036936;28;20454;-62
2023/06/15 00:19:21;;;;;;;1.85;1.30;;;;;;;13.72;76.99;99551.94;5036779;28;20115;-62
2023/06/15 00:21:53;;;;;;;4.33;1.73;;;;;;;13.71;76.80;99545.09;5036878;28;20052;-62
2023/06/15 00:24:22;;;;;;;2.03;1.50;;;;;;;13.67;76.50;99543.44;5036823;28;20804;-62
2023/06/15 00:26:51;;;;;;;0.63;0.63;;;;;;;13.64;76.74;99548.63;5036755;28;20079;-62
2023/06/15 00:29:20;;;;;;;0.97;0.97;;;;;;;13.68;76.56;99545.13;5036644;28;20294;-61
2023/06/15 00:31:49;;;;;;;0.40;0.40;;;;;;;13.70;76.42;99545.97;5035494;28;20049;-62
2023/06/15 00:34:19;;;;;;;0.50;0.50;;;;;;;13.64;76.46;99548.63;5035388;28;20140;-61
2023/06/15 00:36:50;;;;;;;0.73;0.73;;;;;;;13.58;76.46;99543.59;5016760;28;20050;-62
2023/06/15 00:39:19;;;;;;;0.65;0.65;;;;;;;13.51;76.58;99553.06;5016634;28;20053;-61
2023/06/15 00:41:48;;;;;;;0.90;0.88;;;;;;;13.44;77.01;99547.19;5015446;28;20042;-61
2023/06/15 00:44:17;;;;;;;3.67;0.60;;;;;;;13.50;77.22;99545.41;5015682;28;20108;-62
2023/06/15 00:46:46;;;;;;;1.50;1.10;;;;;;;13.50;77.11;99540.28;5016515;28;20539;-61
2023/06/15 00:49:16;;;;;;;0.75;0.75;;;;;;;13.54;77.09;99547.06;5016429;28;20046;-61
2023/06/15 00:51:47;;;;;;;0.70;0.70;;;;;;;13.44;76.77;99531.81;5015288;28;20518;-61
2023/06/15 00:54:21;;;;;;;1.58;1.10;;;;;;;13.52;76.42;99554.78;5015286;28;20057;-61
2023/06/15 00:56:50;;;;;;;0.47;0.47;;;;;;;13.51;76.18;99547.13;5016931;28;20512;-62
2023/06/15 00:59:19;;;;;;;1.40;1.30;;;;;;;13.48;76.28;99552.28;5015146;28;20428;-61
2023/06/15 01:01:49;;;;;;;0.60;0.60;;;;;;;13.41;75.97;99536.97;5015076;28;20066;-61
2023/06/15 01:04:18;;;;;;;1.23;0.95;;;;;;;13.37;76.33;99544.75;5016248;28;20510;-61
2023/06/15 01:06:51;;;;;;;2.78;0.75;;;;;;;13.31;76.48;99540.56;5016275;28;20104;-62
2023/06/15 01:09:22;;;;;;;1.00;0.70;;;;;;;13.27;76.37;99544.03;5016127;28;20496;-62
2023/06/15 01:11:55;;;;;;;1.27;1.17;;;;;;;13.28;76.45;99547.44;5016340;28;20072;-61
2023/06/15 01:14:26;;;;;;;1.73;1.00;;;;;;;13.31;76.11;99544.84;5016112;28;20053;-62
2023/06/15 01:17:00;;;;;;;1.80;1.70;;;;;;;13.32;75.84;99549.09;5016506;28;20046;-61
2023/06/15 01:19:57;;;;;;;1.30;1.20;;;;;;;13.30;75.84;99544.00;5016612;28;20465;-62
2023/06/15 01:22:49;;;;;;;6.03;0.80;;;;;;;13.26;75.56;99542.34;5015906;28;20124;-61
2023/06/15 01:25:29;;;;;;;1.63;1.52;;;;;;;13.25;75.48;99537.22;5014663;28;20092;-61
2023/06/15 01:28:01;;;;;;;0.43;0.43;;;;;;;13.14;75.29;99534.81;5014712;28;20066;-61
2023/06/15 01:30:34;;;;;;;1.27;1.17;;;;;;;13.18;75.46;99539.03;5015651;28;20053;-62
2023/06/15 01:33:03;;;;;;;1.38;1.27;;;;;;;13.09;75.59;99539.16;5014499;28;20090;-62
2023/06/15 01:35:32;;;;;;;1.95;1.67;;;;;;;12.99;75.47;99537.53;5025067;28;20061;-61
2023/06/15 01:38:01;;;;;;;1.23;1.13;;;;;;;12.86;75.55;99525.75;5050860;28;20052;-61
2023/06/15 01:40:32;;;;;;;3.83;1.17;;;;;;;12.90;75.76;99547.91;5035176;28;20079;-61
2023/06/15 01:43:03;;;;;;;1.33;1.23;;;;;;;12.92;75.55;99551.31;5034343;28;20407;-62
2023/06/15 01:45:34;;;;;;;1.42;1.05;;;;;;;12.85;75.59;99544.56;5035291;28;20057;-61
2023/06/15 01:48:04;;;;;;;0.57;0.57;;;;;;;12.75;75.94;99542.97;5035175;28;20512;-61
2023/06/15 01:50:35;;;;;;;1.67;1.58;;;;;;;12.65;75.67;99542.22;5035171;28;20067;-62
2023/06/15 01:53:04;;;;;;;1.17;1.08;;;;;;;12.51;75.76;99531.28;5034417;28;20045;-61
2023/06/15 01:55:34;;;;;;;0.70;0.70;;;;;;;12.60;75.69;99548.25;5035015;28;20049;-62
2023/06/15 01:58:05;;;;;;;2.35;1.40;;;;;;;12.54;75.44;99540.66;5034991;28;20053;-62
2023/06/15 02:00:34;;;;;;;1.00;0.90;;;;;;;12.52;75.77;99550.06;5034053;28;20045;-61
2023/06/15 02:03:03;;;;;;;0.80;0.80;;;;;;;12.59;75.85;99546.56;5033917;28;20049;-61
2023/06/15 02:05:38;;;;;;;0.77;0.70;;;;;;;12.63;75.73;99550.78;5033930;28;20132;-61
2023/06/15 02:08:09;;;;;;;0.60;0.60;;;;;;;12.61;75.57;99544.84;5034908;28;20286;-61
2023/06/15 02:10:38;;;;;;;0.70;0.70;;;;;;;12.62;75.79;99546.56;5034775;28;20046;-61
2023/06/15 02:13:09;;;;;;;;;;;;;;;12.58;75.80;99544.88;5034176;28;20468;-61
2023/06/15 02:15:38;;;;;;;1.88;0.93;;;;;;;12.57;75.91;99545.75;5033535;28;19996;-61
2023/06/15 02:18:12;;;;;;;0.68;0.68;;;;;;;12.43;76.01;99545.06;5033496;28;20050;-61
2023/06/15 02:20:46;;;;;;;0.63;0.57;;;;;;;12.42;76.40;99543.34;5034508;28;20049;-62
2023/06/15 02:23:15;;;;;;;1.40;1.30;;;;;;;12.47;76.50;99545.00;5034557;28;20054;-62
2023/06/15 02:25:46;;;;;;;1.40;1.30;;;;;;;12.48;76.28;99548.38;5034776;28;20547;-61
2023/06/15 02:28:16;;;;;;;0.70;0.70;;;;;;;12.46;76.21;99550.97;5033608;28;20403;-61
2023/06/15 02:30:45;;;;;;;2.97;1.77;;;;;;;12.36;76.36;99558.75;5035230;28;20554;-62
2023/06/15 02:33:15;;;;;;;0.97;0.87;;;;;;;12.31;76.54;99555.41;5034335;28;20056;-62
2023/06/15 02:35:44;;;;;;;1.35;1.25;;;;;;;12.37;76.60;99555.34;5034063;28;20084;-62
2023/06/15 02:38:15;;;;;;;0.50;0.50;;;;;;;12.41;76.40;99554.44;5034182;28;20080;-62
2023/06/15 02:40:44;;;;;;;0.52;0.52;;;;;;;12.40;76.48;99552.75;5033256;28;20128;-62
2023/06/15 02:43:14;;;;;;;1.70;1.38;;;;;;;12.35;76.42;99549.41;5034025;28;20045;-62
2023/06/15 02:45:44;;;;;;;0.85;0.85;;;;;;;12.35;76.48;99554.50;5034172;28;20046;-62
2023/06/15 02:48:15;;;;;;;2.70;1.65;;;;;;;12.36;76.52;99558.75;5034435;28;20103;-62
2023/06/15 02:50:44;;;;;;;1.20;1.05;;;;;;;12.37;76.31;99556.19;5033941;28;20046;-62
2023/06/15 02:53:20;;;;;;;2.10;0.98;;;;;;;12.30;76.39;99558.81;5034279;28;20483;-63
2023/06/15 02:55:52;;;;;;;1.48;1.25;;;;;;;12.23;76.12;99558.03;5034203;28;20488;-62
2023/06/15 02:58:24;;;;;;;;;;;;;;;12.18;76.69;99564.06;5033158;28;20132;-62
2023/06/15 03:01:07;;;;;;;0.40;0.40;;;;;;;12.22;76.83;99565.72;5033825;28;19928;-62
2023/06/15 03:03:50;;;;;;;0.85;0.85;;;;;;;12.30;76.83;99563.94;5049165;28;20095;-62
2023/06/15 03:06:24;;;;;;;0.60;0.55;;;;;;;12.32;76.67;99562.22;5033814;28;20053;-62
2023/06/15 03:08:55;;;;;;;1.23;1.13;;;;;;;12.31;76.81;99563.09;5033763;28;20056;-62
2023/06/15 03:11:27;;;;;;;1.45;1.25;;;;;;;12.36;76.69;99563.88;5033138;28;20103;-62
2023/06/15 03:13:58;;;;;;;1.05;0.90;;;;;;;12.32;76.46;99557.09;5033658;28;20492;-62
2023/06/15 03:16:39;;;;;;;0.82;0.82;;;;;;;12.35;76.58;99568.16;5033728;28;20511;-62
2023/06/15 03:19:11;;;;;;;1.20;1.13;;;;;;;12.31;76.76;99557.97;5034070;28;20045;-62
2023/06/15 03:21:41;;;;;;;2.35;1.60;;;;;;;12.34;76.98;99560.47;5032394;28;20041;-62
2023/06/15 03:24:11;;;;;;;0.75;0.60;;;;;;;12.39;76.91;99563.84;5032936;28;20439;-62
2023/06/15 03:26:42;;;;;;;0.50;0.50;;;;;;;12.43;77.01;99565.53;5032603;28;20056;-62
2023/06/15 03:29:13;;;;;;;0.90;0.75;;;;;;;12.48;77.04;99573.97;5033525;28;20508;-62
2023/06/15 03:31:46;;;;;;;1.30;1.20;;;;;;;12.41;76.78;99551.88;5033482;28;20045;-62
2023/06/15 03:34:15;;;;;;;2.28;0.80;;;;;;;12.61;76.80;99570.44;5032136;28;20049;-62
2023/06/15 03:36:44;;;;;;;0.75;0.70;;;;;;;12.57;76.73;99569.63;5033248;28;20057;-62
2023/06/15 03:39:14;;;;;;;2.05;1.67;;;;;;;12.69;76.42;99573.78;5032200;28;20045;-62
2023/06/15 03:41:43;;;;;;;;;;;;;;;12.74;76.49;99582.25;5032541;28;20045;-62
2023/06/15 03:44:14;;;;;;;0.70;0.70;;;;;;;12.78;76.38;99586.47;5033415;28;19924;-62
2023/06/15 03:46:46;;;;;;;1.05;0.98;;;;;;;12.77;76.44;99587.31;5033248;28;20087;-62
2023/06/15 03:49:15;;;;;;;1.67;1.35;;;;;;;12.78;76.88;99582.22;5033321;28;20041;-62
2023/06/15 03:51:45;;;;;;;0.80;0.80;;;;;;;12.85;76.91;99584.69;5033359;28;20069;-62
2023/06/15 03:54:14;;;;;;;0.57;0.57;;;;;;;12.89;77.03;99589.75;5032080;28;20779;-62
2023/06/15 03:56:44;;;;;;;1.05;0.80;;;;;;;12.95;76.88;99589.69;5032303;28;20077;-62
2023/06/15 03:59:13;;;;;;;0.52;0.52;;;;;;;13.00;77.33;99592.19;5032085;28;20107;-62
2023/06/15 04:01:42;;;;;;;13.90;1.70;;;;;;;13.03;77.17;99597.31;5031977;28;20049;-62
2023/06/15 04:04:14;;;;;;;0.80;0.80;;;;;;;13.15;77.24;99590.31;5032109;28;20045;-62
2023/06/15 04:06:46;;;;;;;0.47;0.47;;;;;;;13.13;77.18;99581.81;5033509;28;20045;-62
2023/06/15 04:09:17;;;;;;;2.15;1.25;;;;;;;13.18;77.24;99585.16;5033496;28;20064;-62
2023/06/15 04:11:46;;;;;;;0.73;0.70;;;;;;;13.24;77.38;99585.09;5032345;28;20071;-62
2023/06/15 04:14:15;;;;;;;1.50;1.23;;;;;;;13.26;76.86;99588.50;5033194;28;20073;-62
2023/06/15 04:16:44;;;;;;;1.07;1.03;;;;;;;13.31;77.18;99589.28;5032254;28;20049;-62
2023/06/15 04:19:14;;;;;;;0.50;0.50;;;;;;;13.38;76.79;99583.19;5032226;28;20065;-62
2023/06/15 04:21:43;;;;;;;0.70;0.70;;;;;;;13.51;76.95;99577.91;5031805;28;20068;-62
2023/06/15 04:24:13;;;;;;;1.38;1.25;;;;;;;13.53;76.82;99583.84;5035570;28;20045;-63
2023/06/15 04:26:43;;;;;;;1.73;1.00;;;;;;;13.56;76.88;99586.34;5035664;28;20050;-63
2023/06/15 04:29:12;;;;;;;1.02;0.95;;;;;;;13.67;77.04;99589.63;5037054;28;20057;-63
2023/06/15 04:31:44;;;;;;;1.85;1.05;;;;;;;13.83;77.17;99597.06;5036647;28;20529;-62
2023/06/15 04:34:15;;;;;;;0.68;0.68;;;;;;;13.89;76.64;99598.69;5052002;28;20049;-62
2023/06/15 04:36:45;;;;;;;0.80;0.80;;;;;;;13.95;76.33;99593.44;5035155;28;20076;-62
2023/06/15 04:39:15;;;;;;;0.65;0.65;;;;;;;14.08;76.13;99598.34;5036489;28;20070;-62
2023/06/15 04:41:45;;;;;;;0.65;0.65;;;;;;;14.13;75.68;99600.88;5035480;28;20128;-62
2023/06/15 04:44:15;;;;;;;0.85;0.57;;;;;;;14.20;75.59;99591.34;5036413;28;20054;-62
2023/06/15 04:46:46;;;;;;;2.05;1.05;;;;;;;14.45;75.55;99598.63;5035157;28;20132;-62
2023/06/15 04:49:17;;;;;;;1.60;1.50;;;;;;;14.60;74.81;99598.34;5035173;28;20542;-62
2023/06/15 04:51:48;;;;;;;1.25;0.90;;;;;;;14.69;74.20;99603.31;5035653;28;20492;-63
2023/06/15 04:54:17;;;;;;;3.97;1.00;;;;;;;14.86;73.95;99597.84;5036517;28;20411;-63
2023/06/15 04:56:45;;;;;;;2.63;1.53;;;;;;;15.06;73.43;99600.91;5036430;28;20129;-63
2023/06/15 04:59:15;;;;;;;1.13;1.05;;;;;;;15.22;72.66;99598.84;5036085;28;20049;-62
2023/06/15 05:01:44;;;;;;;3.93;1.83;;;;;;;15.27;72.32;99597.03;5036177;28;20487;-63
2023/06/15 05:04:34;;;;;;;;;;;;;;;15.37;71.96;99594.25;5036347;28;20411;-63
2023/06/15 05:07:04;;;;;;;0.95;0.95;;;;;;;15.55;71.67;99594.75;5034828;28;19963;-63
2023/06/15 05:09:37;;;;;;;0.93;0.63;;;;;;;15.64;71.10;99597.97;5051572;28;20049;-63
2023/06/15 05:12:11;;;;;;;1.05;0.95;;;;;;;15.71;71.17;99589.22;5035809;28;20056;-62
2023/06/15 05:14:40;;;;;;;1.75;1.65;;;;;;;15.94;70.74;99592.09;5034607;28;20060;-62
2023/06/15 05:17:10;;;;;;;1.38;1.08;;;;;;;16.13;70.54;99592.50;5034472;28;20133;-63
2023/06/15 05:19:40;;;;;;;0.70;0.70;;;;;;;16.34;70.09;99596.28;5034777;28;20384;-62
2023/06/15 05:22:10;;;;;;;1.02;0.90;;;;;;;16.37;69.93;99596.19;5035632;28;20479;-63
2023/06/15 05:24:40;;;;;;;0.80;0.80;;;;;;;16.42;69.39;99609.78;5035656;28;20053;-63
2023/06/15 05:27:10;;;;;;;0.55;0.55;;;;;;;16.37;69.10;99606.47;5034701;28;20184;-62
2023/06/15 05:29:43;;;;;;;0.38;0.38;;;;;;;16.40;69.29;99601.25;5035695;28;20073;-62
2023/06/15 05:32:13;;;;;;;0.63;0.63;;;;;;;16.59;69.24;99615.38;5034292;28;20052;-63
2023/06/15 05:34:44;;;;;;;1.05;0.90;;;;;;;16.62;69.11;99607.59;5033138;28;20080;-63
2023/06/15 05:37:13;;;;;;;1.00;0.90;;;;;;;16.83;69.05;99603.59;5034249;28;20046;-62
2023/06/15 05:39:42;;;;;;;0.70;0.70;;;;;;;16.89;68.57;99609.44;5034141;28;20052;-62
2023/06/15 05:42:11;;;;;;;0.70;0.70;;;;;;;16.96;68.54;99600.66;5017630;28;20446;-63
2023/06/15 05:44:43;;;;;;;0.75;0.75;;;;;;;17.07;68.41;99605.47;5035286;28;20128;-63
2023/06/15 05:47:12;;;;;;;0.55;0.55;;;;;;;17.19;68.08;99606.00;5035524;28;20045;-63
2023/06/15 05:49:44;;;;;;;0.82;0.70;;;;;;;17.27;67.67;99609.19;5034002;28;20033;-63
2023/06/15 05:52:14;;;;;;;1.23;0.98;;;;;;;17.30;67.44;99603.06;5033763;28;20140;-64
2023/06/15 05:54:44;;;;;;;;;;;;;;;17.42;67.10;99603.56;5030844;28;20053;-62
2023/06/15 05:57:14;;;;;;;0.98;0.85;;;;;;;17.57;66.49;99601.44;5034999;28;20020;-63
2023/06/15 05:59:46;;;;;;;;;;;;;;;17.68;65.85;99608.00;5035622;28;20399;-63
2023/06/15 06:02:16;;;;;;;0.60;0.60;;;;;;;17.72;65.44;99601.00;5032570;28;19921;-63
2023/06/15 06:04:46;;;;;;;2.50;0.93;;;;;;;17.81;65.03;99605.88;5050109;28;20388;-62
2023/06/15 06:07:17;;;;;;;0.65;0.65;;;;;;;18.02;64.81;99606.03;5034745;28;20041;-62
2023/06/15 06:09:46;;;;;;;1.20;1.10;;;;;;;18.13;64.41;99603.13;5035013;28;20037;-62
2023/06/15 06:12:16;;;;;;;1.48;0.80;;;;;;;18.30;64.21;99608.56;5050203;28;20050;-62
2023/06/15 06:14:45;;;;;;;0.98;0.98;;;;;;;18.46;63.34;99607.19;5049607;28;20033;-64
2023/06/15 06:17:14;;;;;;;0.73;0.73;;;;;;;18.51;62.83;99605.28;5034647;28;20103;-63
2023/06/15 06:20:06;;;;;;;1.27;0.90;;;;;;;18.45;61.96;99607.22;5033667;28;20049;-63
2023/06/15 06:22:35;;;;;;;1.08;0.98;;;;;;;18.57;61.35;99614.59;5033195;28;20279;-63
2023/06/15 06:25:04;;;;;;;0.55;0.55;;;;;;;18.65;61.03;99618.59;5033582;28;20064;-64
2023/06/15 06:27:33;;;;;;;0.60;0.60;;;;;;;18.74;60.22;99618.25;5034373;28;20056;-63
2023/06/15 06:30:02;;;;;;;0.87;0.83;;;;;;;18.80;59.60;99622.38;5034381;28;20053;-63
2023/06/15 06:32:31;;;;;;;0.98;0.95;;;;;;;18.88;59.47;99611.78;5034589;28;20046;-63
2023/06/15 06:35:00;;;;;;;1.45;1.02;;;;;;;19.00;59.23;99612.19;5034332;28;20049;-63
2023/06/15 06:37:30;;;;;;;1.13;0.97;;;;;;;19.10;59.29;99610.13;5033454;28;20495;-63
2023/06/15 06:39:59;;;;;;;1.73;1.58;;;;;;;19.22;58.73;99609.63;5034316;28;20459;-63
2023/06/15 06:42:28;;;;;;;1.00;0.68;;;;;;;19.32;58.43;99611.00;5033375;28;20079;-63
2023/06/15 06:44:57;;;;;;;1.13;1.02;;;;;;;19.32;58.28;99608.41;5049345;28;20069;-63
2023/06/15 06:47:26;;;;;;;0.95;0.95;;;;;;;19.43;58.34;99603.72;5033617;28;20053;-64
2023/06/15 06:49:55;;;;;;;0.90;0.90;;;;;;;19.46;57.73;99597.59;5034428;28;20049;-63
2023/06/15 06:52:24;;;;;;;0.90;0.80;;;;;;;19.47;57.23;99594.06;5034289;28;20045;-63
2023/06/15 06:54:54;;;;;;;1.17;1.07;;;;;;;19.70;57.68;99610.41;5033845;28;20045;-63
2023/06/15 06:57:23;;;;;;;0.68;0.68;;;;;;;19.84;57.68;99610.69;5033915;28;20518;-64
2023/06/15 06:59:56;;;;;;;1.38;1.27;;;;;;;19.86;56.84;99614.09;5033341;28;20068;-63
2023/06/15 07:02:25;;;;;;;3.60;1.87;;;;;;;20.00;56.44;99611.81;5034110;28;20042;-63
2023/06/15 07:04:54;;;;;;;1.83;1.10;;;;;;;20.13;56.42;99611.31;5033692;28;20041;-63
2023/06/15 07:07:22;;;;;;;1.10;1.00;;;;;;;20.08;56.00;99601.97;5033751;28;20514;-63
2023/06/15 07:09:51;;;;;;;0.50;0.50;;;;;;;20.08;55.98;99602.88;5014042;28;20137;-63
2023/06/15 07:12:21;;;;;;;0.83;0.60;;;;;;;20.02;56.01;99602.22;5013941;28;20062;-63
2023/06/15 07:14:50;;;;;;;1.92;0.82;;;;;;;20.10;56.58;99601.91;5032270;28;20128;-63
2023/06/15 07:17:19;;;;;;;2.25;1.80;;;;;;;20.20;56.07;99602.38;5033847;28;20049;-63
2023/06/15 07:19:48;;;;;;;2.00;1.07;;;;;;;20.15;56.10;99593.94;5033569;28;20049;-64
2023/06/15 07:22:17;;;;;;;1.13;1.03;;;;;;;20.37;56.03;99605.16;5030007;28;20495;-63
2023/06/15 07:24:46;;;;;;;1.30;1.10;;;;;;;20.56;55.98;99601.69;5029286;28;20048;-63
2023/06/15 07:27:15;;;;;;;0.90;0.80;;;;;;;20.65;56.04;99600.47;5032793;28;20176;-63
2023/06/15 07:29:45;;;;;;;1.48;1.08;;;;;;;20.65;55.69;99601.34;5033443;28;20045;-63
2023/06/15 07:32:15;;;;;;;2.00;1.05;;;;;;;20.65;55.49;99600.47;5032581;28;20054;-63
2023/06/15 07:34:44;;;;;;;1.08;0.98;;;;;;;20.70;55.65;99601.13;5033161;28;20061;-63
2023/06/15 07:37:12;;;;;;;0.70;0.70;;;;;;;20.90;55.79;99595.91;5033120;28;20069;-63
2023/06/15 07:39:41;;;;;;;2.53;1.38;;;;;;;21.05;54.90;99595.25;5033384;28;20045;-63
2023/06/15 07:42:10;;;;;;;0.75;0.75;;;;;;;21.23;54.57;99601.38;5032139;28;20145;-63
2023/06/15 07:44:39;;;;;;;0.80;0.77;;;;;;;21.27;53.88;99595.97;5032824;28;20080;-63
2023/06/15 07:47:10;;;;;;;1.75;1.42;;;;;;;21.22;53.58;99592.75;5033284;28;20060;-63
2023/06/15 07:49:39;;;;;;;0.60;0.60;;;;;;;21.34;53.95;99597.38;5033662;28;20048;-63
2023/06/15 07:52:14;;;;;;;3.30;0.95;;;;;;;21.53;53.94;99586.13;5032727;28;20514;-63
2023/06/15 07:54:43;;;;;;;2.97;1.50;;;;;;;21.78;53.86;99586.66;5033342;28;20060;-63
2023/06/15 07:57:12;;;;;;;0.85;0.77;;;;;;;21.94;53.07;99582.44;5034282;28;20136;-63
2023/06/15 07:59:41;;;;;;;1.38;1.05;;;;;;;22.09;52.79;99581.72;5036790;28;20513;-63
2023/06/15 08:02:11;;;;;;;1.17;1.08;;;;;;;22.26;52.08;99589.53;5037736;28;20103;-64
2023/06/15 08:04:40;;;;;;;1.58;0.85;;;;;;;22.38;51.58;99586.31;5037278;28;20069;-63
2023/06/15 08:07:09;;;;;;;1.13;1.02;;;;;;;22.45;51.37;99585.06;5037317;28;20064;-63
2023/06/15 08:09:49;;;;;;;1.08;0.80;;;;;;;22.40;51.52;99594.88;5036178;28;20140;-62
2023/06/15 08:12:18;;;;;;;1.45;0.75;;;;;;;22.56;51.45;99587.97;5037809;28;20042;-63
2023/06/15 08:14:47;;;;;;;0.70;0.70;;;;;;;22.70;51.35;99587.28;5036841;28;20072;-64
2023/06/15 08:17:17;;;;;;;1.02;1.00;;;;;;;22.49;50.15;99586.59;5034470;28;20076;-63
2023/06/15 08:19:47;;;;;;;0.75;0.75;;;;;;;22.47;50.06;99577.19;5037196;28;20468;-63
2023/06/15 08:22:16;;;;;;;1.13;1.00;;;;;;;22.42;49.21;99572.22;5035877;28;20525;-64
2023/06/15 08:24:45;;;;;;;1.77;1.30;;;;;;;22.31;49.71;99579.72;5036832;28;20033;-63
2023/06/15 08:27:14;;;;;;;0.85;0.85;;;;;;;22.44;49.85;99583.38;5035856;28;20054;-64
2023/06/15 08:29:44;;;;;;;0.98;0.82;;;;;;;22.56;49.51;99577.56;5036979;28;20111;-63
2023/06/15 08:32:14;;;;;;;0.45;0.45;;;;;;;22.71;49.50;99575.09;5036898;28;20164;-63
2023/06/15 08:34:45;;;;;;;2.83;0.60;;;;;;;22.78;49.23;99577.31;5036411;28;21546;-64
2023/06/15 08:37:14;;;;;;;0.90;0.85;;;;;;;22.85;47.98;99583.88;5036071;28;20128;-64
2023/06/15 08:39:45;;;;;;;1.05;0.95;;;;;;;22.85;47.10;99577.84;5035748;28;20056;-63
2023/06/15 08:42:14;;;;;;;1.45;1.10;;;;;;;22.86;47.12;99580.38;5036740;28;20041;-63
2023/06/15 08:44:42;;;;;;;;;;;;;;;;;;5036634;28;20038;-63
2023/06/15 08:47:12;;;;;;;0.85;0.70;;;;;;;23.41;46.23;99573.09;5035578;28;20361;-64
2023/06/15 08:49:41;;;;;;;0.80;0.80;;;;;;;23.46;45.55;99565.84;5035041;28;20419;-64
2023/06/15 08:52:15;;;;;;;1.40;1.23;;;;;;;23.52;45.30;99572.47;5036540;28;20048;-65
2023/06/15 08:54:45;;;;;;;0.40;0.40;;;;;;;23.63;45.00;99573.59;5036467;28;20045;-63
2023/06/15 08:57:13;;;;;;;0.47;0.47;;;;;;;23.70;43.92;99569.72;5035225;28;20060;-64
2023/06/15 08:59:42;;;;;;;0.45;0.45;;;;;;;23.83;43.48;99565.47;5036084;28;20140;-63
2023/06/15 09:02:20;;;;;;;0.63;0.60;;;;;;;23.78;42.48;99551.00;5035649;28;20549;-64
2023/06/15 09:04:50;;;;;;;0.68;0.68;;;;;;;23.80;41.73;99560.41;5036422;28;20048;-63
2023/06/15 09:07:22;;;;;;;0.43;0.43;;;;;;;23.90;42.08;99556.38;5035209;28;20053;-63
2023/06/15 09:10:12;;;;;;;0.77;0.70;;;;;;;24.09;42.43;99561.38;5034556;28;20060;-63
2023/06/15 09:12:47;;;;;;;0.45;0.45;;;;;;;24.02;43.09;99566.09;5035292;28;20065;-64
2023/06/15 09:15:20;;;;;;;0.77;0.77;;;;;;;24.00;43.63;99562.75;5036126;28;20488;-63
2023/06/15 09:17:53;;;;;;;0.50;0.50;;;;;;;23.98;44.59;99548.97;5035181;28;20041;-64
2023/06/15 09:20:24;;;;;;;0.70;0.70;;;;;;;24.10;43.07;99567.44;5035703;28;20545;-64
2023/06/15 09:22:58;;;;;;;1.05;0.75;;;;;;;24.12;40.94;99553.41;5036013;28;20472;-63
2023/06/15 09:25:27;;;;;;;0.40;0.40;;;;;;;24.16;40.89;99556.69;5050964;28;20091;-63
2023/06/15 09:27:58;;;;;;;0.50;0.50;;;;;;;24.49;40.87;99554.69;5034189;28;20120;-63
2023/06/15 09:30:32;;;;;;;0.65;0.65;;;;;;;24.78;41.35;99566.88;5035579;28;20060;-64
2023/06/15 09:33:11;;;;;;;0.75;0.75;;;;;;;24.50;41.05;99562.41;5035495;28;20042;-63
2023/06/15 09:35:58;;;;;;;0.50;0.50;;;;;;;24.42;41.18;99553.38;5032965;28;20049;-63
2023/06/15 09:38:32;;;;;;;0.50;0.50;;;;;;;24.39;40.78;99549.19;5024435;28;20072;-65
2023/06/15 09:41:04;;;;;;;0.38;0.38;;;;;;;24.28;40.31;99555.97;5032714;28;20050;-63
2023/06/15 09:43:35;;;;;;;0.68;0.68;;;;;;;24.62;41.73;99550.41;5028433;28;20057;-64
2023/06/15 09:46:10;;;;;;;0.43;0.43;;;;;;;24.90;42.48;99542.63;5015419;28;20069;-63
2023/06/15 09:48:40;;;;;;;0.50;0.50;;;;;;;25.02;41.17;99538.41;5030379;28;20128;-63
2023/06/15 09:51:09;;;;;;;0.50;0.50;;;;;;;25.36;42.68;99542.38;5035461;28;20092;-63
2023/06/15 09:53:40;;;;;;;0.90;0.63;;;;;;;25.23;41.75;99534.47;5036637;28;20073;-63
2023/06/15 09:56:11;;;;;;;0.40;0.40;;;;;;;25.09;41.84;99540.56;5034974;28;20056;-63
2023/06/15 09:59:02;;;;;;;0.40;0.40;;;;;;;25.12;40.54;99529.91;5016126;28;20061;-64
2023/06/15 10:01:36;;;;;;;0.60;0.60;;;;;;;25.18;40.37;99539.97;5024970;28;20060;-64
2023/06/15 10:04:06;;;;;;;0.38;0.38;;;;;;;25.11;39.55;99533.47;5034946;28;20513;-63
2023/06/15 10:06:43;;;;;;;0.70;0.70;;;;;;;25.04;40.36;99524.31;5034879;28;20132;-63
2023/06/15 10:09:18;;;;;;;0.35;0.35;;;;;;;25.08;40.69;99528.41;5034314;28;20131;-63
2023/06/15 10:11:51;;;;;;;0.50;0.50;;;;;;;25.09;40.45;99530.09;5034728;28;20055;-64
2023/06/15 10:14:29;;;;;;;0.40;0.40;;;;;;;25.18;40.17;99519.06;5035057;28;20414;-63
2023/06/15 10:17:03;;;;;;;1.00;0.68;;;;;;;24.81;40.22;99535.34;5033872;28;20053;-63
2023/06/15 10:19:38;;;;;;;0.47;0.47;;;;;;;24.57;41.90;99523.78;5034636;28;20467;-63
2023/06/15 10:22:13;;;;;;;0.50;0.50;;;;;;;24.28;41.66;99520.25;5033597;28;20079;-64
2023/06/15 10:24:44;;;;;;;0.35;0.35;;;;;;;24.04;41.22;99523.44;5034331;28;20045;-63
2023/06/15 10:27:14;;;;;;;0.55;0.50;;;;;;;23.78;41.02;99519.72;5034783;28;20045;-63
2023/06/15 10:30:01;;;;;;;0.52;0.52;;;;;;;24.09;41.08;99524.06;5034438;28;20042;-63
2023/06/15 10:32:42;;;;;;;0.50;0.50;;;;;;;24.35;40.24;99523.38;5034528;28;20045;-64
2023/06/15 10:35:18;;;;;;;0.40;0.40;;;;;;;24.38;39.84;99515.34;5033594;28;20127;-63
2023/06/15 10:37:53;;;;;;;0.98;0.93;;;;;;;24.51;40.17;99517.13;5034242;28;20052;-63
2023/06/15 10:40:30;;;;;;;0.95;0.95;;;;;;;24.67;39.87;99514.41;5034597;28;20073;-64
2023/06/15 10:43:02;;;;;;;0.60;0.60;;;;;;;24.91;40.38;99510.34;5032724;28;20075;-64
2023/06/15 10:45:34;;;;;;;0.63;0.63;;;;;;;24.77;39.75;99517.34;5034114;28;20050;-63
2023/06/15 10:48:04;;;;;;;1.60;0.57;;;;;;;24.47;40.23;99510.44;5034355;28;20045;-63
2023/06/15 10:50:48;;;;;;;0.60;0.60;;;;;;;24.28;41.76;99509.00;5033542;28;20492;-63
2023/06/15 10:53:25;;;;;;;0.40;0.40;;;;;;;24.03;43.02;99520.00;5034028;28;20060;-63
2023/06/15 10:55:57;;;;;;;0.60;0.60;;;;;;;24.21;44.46;99508.50;5034328;28;20381;-63
2023/06/15 10:58:29;;;;;;;0.30;0.30;;;;;;;24.65;43.96;99514.53;5033979;28;20132;-63
2023/06/15 11:01:08;;;;;;;0.32;0.32;;;;;;;25.02;42.99;99500.09;5033254;28;20049;-63
2023/06/15 11:03:41;;;;;;;0.47;0.47;;;;;;;25.05;42.39;99488.59;5033133;28;20056;-64
2023/06/15 11:06:17;;;;;;;0.57;0.57;;;;;;;25.06;42.83;99493.72;5032672;28;20046;-63
2023/06/15 11:08:48;;;;;;;0.38;0.38;;;;;;;25.21;42.44;99492.75;5033735;28;20499;-63
2023/06/15 11:11:21;;;;;;;0.38;0.38;;;;;;;25.06;41.82;99491.09;5032789;28;20492;-64
2023/06/15 11:13:59;;;;;;;1.13;1.02;;;;;;;25.09;43.43;99497.91;5033999;28;20053;-63
2023/06/15 11:16:31;;;;;;;0.40;0.40;;;;;;;25.39;43.67;99489.91;5034001;28;20046;-63
2023/06/15 11:19:27;;;;;;;0.75;0.75;;;;;;;25.54;42.09;99494.16;5033789;28;20136;-66
2023/06/15 11:22:04;;;;;;;0.40;0.40;;;;;;;25.78;41.99;99497.78;5030946;28;20510;-63
2023/06/15 11:24:38;;;;;;;0.80;0.70;;;;;;;26.08;42.98;99490.53;5014125;28;20507;-63
2023/06/15 11:27:09;;;;;;;0.30;0.30;;;;;;;26.18;41.65;99488.97;5021653;28;20045;-63
2023/06/15 11:29:40;;;;;;;1.05;0.88;;;;;;;26.37;41.88;99486.78;5031384;28;20050;-64
2023/06/15 11:32:11;;;;;;;0.90;0.82;;;;;;;26.51;41.46;99472.78;5030555;28;20084;-63
2023/06/15 11:34:41;;;;;;;0.40;0.40;;;;;;;26.68;41.50;99479.44;5033116;28;20045;-63
2023/06/15 11:37:12;;;;;;;0.60;0.60;;;;;;;26.45;40.39;99484.50;5032265;28;20056;-63
2023/06/15 11:39:45;;;;;;;0.30;0.30;;;;;;;26.45;39.47;99478.41;5035267;28;20053;-64
2023/06/15 11:42:16;;;;;;;0.55;0.55;;;;;;;26.23;38.88;99473.81;5013692;28;20050;-63
2023/06/15 11:44:49;;;;;;;0.35;0.35;;;;;;;26.26;38.77;99472.75;5021869;28;20041;-63
2023/06/15 11:47:19;;;;;;;0.50;0.50;;;;;;;26.42;38.78;99469.00;5033335;28;20046;-63
2023/06/15 11:49:48;;;;;;;1.98;0.95;;;;;;;26.69;40.80;99465.41;5032937;28;20045;-63
2023/06/15 11:52:17;;;;;;;1.00;0.90;;;;;;;26.74;40.86;99463.28;5032697;28;20128;-63
2023/06/15 11:54:46;;;;;;;0.70;0.70;;;;;;;26.78;40.36;99464.81;5033315;28;20046;-63
2023/06/15 11:57:24;;;;;;;15.35;10.95;;;;;;;26.81;40.51;99454.09;5029950;28;20060;-64